Terminal Aerodrome Forecast
Issued by NWS

Home | Current Version | Previous Version | Text Only | Print | Product List | Glossary On
Versions: 1 2 3 4 5 6 7 8 9 10 11 12 13 14 15 16 17 18 19 20 21 22 23 24 25 26 27 28
107
FTUS41 KOKX 262341
TAFHPN
TAF
KHPN 262341Z 2700/2724 30011KT P6SM FEW060
     FM270200 29008KT P6SM FEW060
     FM270400 27007KT P6SM SKC
     FM270800 24005KT P6SM SKC
     FM271300 24008KT P6SM SCT120
     FM271600 23012G19KT P6SM SCT070 BKN100
     FM272300 22007KT P6SM BKN100
      AMD NOT SKED=

USA.gov is the U.S. government's official web portal to all federal, state and local government web resources and services.